sensor_id;sensor_type;location;lat;lon;timestamp;pressure;altitude;pressure_sealevel;temperature;humidity
74913;BME280;63878;55.624;37.304;2023-01-29T00:00:29;99143.88;;;-5.92;69.09
74913;BME280;63878;55.624;37.304;2023-01-29T00:10:30;99141.75;;;-6.15;70.30
74913;BME280;63878;55.624;37.304;2023-01-29T00:20:30;99126.06;;;-6.01;70.15
74913;BME280;63878;55.624;37.304;2023-01-29T00:30:31;99131.31;;;-6.06;70.63
74913;BME280;63878;55.624;37.304;2023-01-29T00:40:31;99125.31;;;-6.06;70.74
74913;BME280;63878;55.624;37.304;2023-01-29T00:50:32;99118.59;;;-6.12;69.22
74913;BME280;63878;55.624;37.304;2023-01-29T01:00:32;99112.00;;;-6.25;65.77
74913;BME280;63878;55.624;37.304;2023-01-29T01:10:32;99124.75;;;-6.21;64.93
74913;BME280;63878;55.624;37.304;2023-01-29T01:20:35;99115.66;;;-6.37;64.63
74913;BME280;63878;55.624;37.304;2023-01-29T01:30:35;99117.31;;;-6.34;65.17
74913;BME280;63878;55.624;37.304;2023-01-29T01:40:36;99102.69;;;-6.31;65.19
74913;BME280;63878;55.624;37.304;2023-01-29T02:11:45;99066.81;;;-6.35;65.54
74913;BME280;63878;55.624;37.304;2023-01-29T02:22:04;99062.56;;;-6.37;66.32
74913;BME280;63878;55.624;37.304;2023-01-29T02:42:27;99032.88;;;-6.50;64.99
74913;BME280;63878;55.624;37.304;2023-01-29T02:52:39;99020.94;;;-6.51;65.38
74913;BME280;63878;55.624;37.304;2023-01-29T03:02:48;99008.31;;;-6.60;65.99
74913;BME280;63878;55.624;37.304;2023-01-29T03:12:59;98994.31;;;-6.47;64.94
74913;BME280;63878;55.624;37.304;2023-01-29T03:23:08;98968.69;;;-6.50;65.65
74913;BME280;63878;55.624;37.304;2023-01-29T03:33:11;98932.63;;;-6.44;65.89
74913;BME280;63878;55.624;37.304;2023-01-29T03:53:29;98917.22;;;-6.44;64.45
74913;BME280;63878;55.624;37.304;2023-01-29T04:03:37;98914.41;;;-6.33;64.63
74913;BME280;63878;55.624;37.304;2023-01-29T04:13:40;98897.38;;;-6.37;64.98
74913;BME280;63878;55.624;37.304;2023-01-29T04:23:40;98892.19;;;-6.35;64.76
74913;BME280;63878;55.624;37.304;2023-01-29T04:44:32;98886.16;;;-6.34;65.30
74913;BME280;63878;55.624;37.304;2023-01-29T05:04:56;98872.72;;;-6.44;64.93
74913;BME280;63878;55.624;37.304;2023-01-29T05:15:00;98874.50;;;-6.48;65.49
74913;BME280;63878;55.624;37.304;2023-01-29T05:25:01;98871.88;;;-6.45;65.58
74913;BME280;63878;55.624;37.304;2023-01-29T05:35:02;98876.94;;;-6.42;64.91
74913;BME280;63878;55.624;37.304;2023-01-29T05:45:03;98873.56;;;-6.44;65.99
74913;BME280;63878;55.624;37.304;2023-01-29T05:55:03;98880.75;;;-6.58;66.93
74913;BME280;63878;55.624;37.304;2023-01-29T06:05:05;98877.22;;;-6.91;67.72
74913;BME280;63878;55.624;37.304;2023-01-29T06:15:05;98872.84;;;-6.87;67.76
74913;BME280;63878;55.624;37.304;2023-01-29T06:25:07;98860.25;;;-6.61;67.49
74913;BME280;63878;55.624;37.304;2023-01-29T06:35:08;98838.75;;;-6.55;66.26
74913;BME280;63878;55.624;37.304;2023-01-29T06:45:09;98861.50;;;-6.40;66.28
74913;BME280;63878;55.624;37.304;2023-01-29T06:55:09;98847.03;;;-6.44;66.42
74913;BME280;63878;55.624;37.304;2023-01-29T07:05:10;98820.94;;;-6.27;65.32
74913;BME280;63878;55.624;37.304;2023-01-29T07:15:11;98824.81;;;-6.45;65.36
74913;BME280;63878;55.624;37.304;2023-01-29T07:25:11;98813.16;;;-6.24;65.15
74913;BME280;63878;55.624;37.304;2023-01-29T07:35:12;98808.78;;;-5.88;64.97
74913;BME280;63878;55.624;37.304;2023-01-29T07:45:13;98812.59;;;-6.35;64.41
74913;BME280;63878;55.624;37.304;2023-01-29T07:55:14;98796.34;;;-6.03;63.33
74913;BME280;63878;55.624;37.304;2023-01-29T08:05:21;98774.84;;;-5.99;63.29
74913;BME280;63878;55.624;37.304;2023-01-29T08:15:23;98789.63;;;-5.76;63.32
74913;BME280;63878;55.624;37.304;2023-01-29T08:25:24;98771.34;;;-5.66;61.68
74913;BME280;63878;55.624;37.304;2023-01-29T08:35:31;98766.03;;;-5.60;61.96
74913;BME280;63878;55.624;37.304;2023-01-29T08:45:34;98754.91;;;-5.60;61.51
74913;BME280;63878;55.624;37.304;2023-01-29T08:55:37;98756.81;;;-5.68;61.25
74913;BME280;63878;55.624;37.304;2023-01-29T09:05:39;98750.88;;;-5.70;61.62
74913;BME280;63878;55.624;37.304;2023-01-29T09:15:40;98740.44;;;-5.64;61.67
74913;BME280;63878;55.624;37.304;2023-01-29T09:25:42;98752.16;;;-5.56;61.65
74913;BME280;63878;55.624;37.304;2023-01-29T09:35:43;98721.88;;;-5.75;61.75
74913;BME280;63878;55.624;37.304;2023-01-29T09:46:13;98724.50;;;-5.47;61.01
74913;BME280;63878;55.624;37.304;2023-01-29T09:56:18;98716.94;;;-5.52;61.13
74913;BME280;63878;55.624;37.304;2023-01-29T10:16:40;98686.50;;;-5.67;62.51
74913;BME280;63878;55.624;37.304;2023-01-29T10:26:45;98647.50;;;-5.52;61.77
74913;BME280;63878;55.624;37.304;2023-01-29T10:36:47;98620.75;;;-5.46;62.02
74913;BME280;63878;55.624;37.304;2023-01-29T10:46:59;98594.16;;;-5.20;61.62
74913;BME280;63878;55.624;37.304;2023-01-29T11:08:15;98579.38;;;-5.95;64.23
74913;BME280;63878;55.624;37.304;2023-01-29T11:18:20;98573.22;;;-5.89;64.43
74913;BME280;63878;55.624;37.304;2023-01-29T11:28:42;98575.16;;;-5.96;65.59
74913;BME280;63878;55.624;37.304;2023-01-29T11:38:46;98563.94;;;-5.65;64.22
74913;BME280;63878;55.624;37.304;2023-01-29T11:49:04;98541.91;;;-5.47;63.49
74913;BME280;63878;55.624;37.304;2023-01-29T11:59:05;98562.16;;;-5.91;64.91
74913;BME280;63878;55.624;37.304;2023-01-29T12:09:16;98536.41;;;-5.90;65.71
74913;BME280;63878;55.624;37.304;2023-01-29T12:29:32;98539.88;;;-6.19;66.47
74913;BME280;63878;55.624;37.304;2023-01-29T12:39:36;98538.66;;;-5.79;65.30
74913;BME280;63878;55.624;37.304;2023-01-29T12:49:38;98529.00;;;-6.27;67.58
74913;BME280;63878;55.624;37.304;2023-01-29T12:59:48;98538.16;;;-6.18;67.35
74913;BME280;63878;55.624;37.304;2023-01-29T13:09:56;98532.31;;;-6.23;67.85
74913;BME280;63878;55.624;37.304;2023-01-29T13:20:12;98524.59;;;-6.23;67.74
74913;BME280;63878;55.624;37.304;2023-01-29T13:30:33;98513.53;;;-6.25;68.11
74913;BME280;63878;55.624;37.304;2023-01-29T13:40:36;98516.69;;;-6.45;68.74
74913;BME280;63878;55.624;37.304;2023-01-29T13:50:39;98505.50;;;-6.43;68.70
74913;BME280;63878;55.624;37.304;2023-01-29T14:10:42;98482.47;;;-6.18;68.14
74913;BME280;63878;55.624;37.304;2023-01-29T14:30:48;98483.19;;;-6.13;68.22
74913;BME280;63878;55.624;37.304;2023-01-29T14:40:49;98478.50;;;-6.00;68.08
74913;BME280;63878;55.624;37.304;2023-01-29T14:50:53;98467.97;;;-6.19;68.31
74913;BME280;63878;55.624;37.304;2023-01-29T15:00:57;98464.75;;;-5.99;68.59
74913;BME280;63878;55.624;37.304;2023-01-29T15:11:03;98452.13;;;-6.05;68.80
74913;BME280;63878;55.624;37.304;2023-01-29T15:21:12;98458.16;;;-6.06;68.79
74913;BME280;63878;55.624;37.304;2023-01-29T15:31:16;98469.88;;;-6.25;69.24
74913;BME280;63878;55.624;37.304;2023-01-29T15:41:19;98472.91;;;-6.13;69.64
74913;BME280;63878;55.624;37.304;2023-01-29T15:51:23;98451.22;;;-6.04;69.66
74913;BME280;63878;55.624;37.304;2023-01-29T16:01:28;98441.84;;;-6.05;70.56
74913;BME280;63878;55.624;37.304;2023-01-29T16:11:32;98435.03;;;-6.07;69.49
74913;BME280;63878;55.624;37.304;2023-01-29T16:21:37;98437.97;;;-6.18;70.64
74913;BME280;63878;55.624;37.304;2023-01-29T16:31:49;98402.47;;;-6.32;70.37
74913;BME280;63878;55.624;37.304;2023-01-29T16:52:19;98420.38;;;-6.30;71.58
74913;BME280;63878;55.624;37.304;2023-01-29T17:02:31;98410.34;;;-6.38;72.01
74913;BME280;63878;55.624;37.304;2023-01-29T17:12:39;98396.41;;;-6.57;71.81
74913;BME280;63878;55.624;37.304;2023-01-29T17:22:40;98387.25;;;-6.38;71.77
74913;BME280;63878;55.624;37.304;2023-01-29T17:32:43;98379.94;;;-6.50;71.92
74913;BME280;63878;55.624;37.304;2023-01-29T17:42:49;98369.72;;;-6.25;70.13
74913;BME280;63878;55.624;37.304;2023-01-29T17:53:03;98377.06;;;-6.41;71.46
74913;BME280;63878;55.624;37.304;2023-01-29T18:03:18;98383.13;;;-6.44;71.85
74913;BME280;63878;55.624;37.304;2023-01-29T18:13:20;98355.53;;;-6.63;71.99
74913;BME280;63878;55.624;37.304;2023-01-29T18:23:21;98353.84;;;-6.65;71.90
74913;BME280;63878;55.624;37.304;2023-01-29T18:33:21;98369.53;;;-6.47;71.20
74913;BME280;63878;55.624;37.304;2023-01-29T18:43:23;98361.38;;;-6.58;71.53
74913;BME280;63878;55.624;37.304;2023-01-29T18:53:24;98364.19;;;-6.40;71.11
74913;BME280;63878;55.624;37.304;2023-01-29T19:03:24;98362.84;;;-6.25;70.59
74913;BME280;63878;55.624;37.304;2023-01-29T19:13:25;98347.38;;;-6.23;69.80
74913;BME280;63878;55.624;37.304;2023-01-29T19:23:26;98326.69;;;-6.19;69.74
74913;BME280;63878;55.624;37.304;2023-01-29T19:33:27;98339.44;;;-6.42;70.24
74913;BME280;63878;55.624;37.304;2023-01-29T19:43:28;98324.72;;;-6.37;70.33
74913;BME280;63878;55.624;37.304;2023-01-29T19:53:30;98325.03;;;-6.46;70.39
74913;BME280;63878;55.624;37.304;2023-01-29T20:03:31;98309.47;;;-6.42;70.35
74913;BME280;63878;55.624;37.304;2023-01-29T20:13:32;98285.88;;;-6.26;70.50
74913;BME280;63878;55.624;37.304;2023-01-29T20:23:32;98270.41;;;-6.25;69.45
74913;BME280;63878;55.624;37.304;2023-01-29T20:33:34;98271.66;;;-6.12;68.59
74913;BME280;63878;55.624;37.304;2023-01-29T20:43:34;98268.59;;;-6.23;69.26
74913;BME280;63878;55.624;37.304;2023-01-29T20:53:35;98257.28;;;-6.17;68.16
74913;BME280;63878;55.624;37.304;2023-01-29T21:03:38;98252.50;;;-6.28;68.39
74913;BME280;63878;55.624;37.304;2023-01-29T21:13:42;98245.69;;;-6.29;68.71
74913;BME280;63878;55.624;37.304;2023-01-29T21:23:43;98237.22;;;-6.31;69.87
74913;BME280;63878;55.624;37.304;2023-01-29T21:33:44;98243.03;;;-6.51;71.01
74913;BME280;63878;55.624;37.304;2023-01-29T21:43:45;98231.31;;;-6.33;70.49
74913;BME280;63878;55.624;37.304;2023-01-29T21:53:45;98225.22;;;-6.30;71.05
74913;BME280;63878;55.624;37.304;2023-01-29T22:03:46;98222.97;;;-6.40;70.25
74913;BME280;63878;55.624;37.304;2023-01-29T22:13:46;98217.44;;;-6.54;71.13
74913;BME280;63878;55.624;37.304;2023-01-29T22:23:47;98194.66;;;-6.38;70.84
74913;BME280;63878;55.624;37.304;2023-01-29T22:33:49;98176.97;;;-6.22;70.61
74913;BME280;63878;55.624;37.304;2023-01-29T22:43:49;98164.44;;;-6.06;70.93
74913;BME280;63878;55.624;37.304;2023-01-29T22:53:51;98145.38;;;-6.24;71.44
74913;BME280;63878;55.624;37.304;2023-01-29T23:03:52;98144.94;;;-6.35;72.25
74913;BME280;63878;55.624;37.304;2023-01-29T23:13:54;98131.88;;;-6.29;72.00
74913;BME280;63878;55.624;37.304;2023-01-29T23:23:56;98119.81;;;-6.27;72.10
74913;BME280;63878;55.624;37.304;2023-01-29T23:33:56;98105.81;;;-6.19;71.40
74913;BME280;63878;55.624;37.304;2023-01-29T23:43:57;98099.06;;;-6.45;72.15
74913;BME280;63878;55.624;37.304;2023-01-29T23:53:57;98077.25;;;-6.11;70.85
